Terminal Aerodrome Forecast
Issued by NWS

Home | Current Version | Previous Version | Text Only | Print | Product List | Glossary On
Versions: 1 2 3 4 5 6 7 8 9 10 11 12
000
FTUS42 KTAE 271720
TAFVLD
TAF
KVLD 271720Z 2718/2818 21005KT P6SM SKC
     FM280900 00000KT 3SM BR SCT004 OVC007
     FM281400 26006KT P6SM BKN015=

USA.gov is the U.S. government's official web portal to all federal, state and local government web resources and services.